sensor_id;sensor_type;location;lat;lon;timestamp;pressure;altitude;pressure_sealevel;temperature;humidity
9462;BME280;4769;42.660;23.262;2023-06-14T00:00:42;93704.88;;;19.59;100.00
9462;BME280;4769;42.660;23.262;2023-06-14T00:03:08;93692.66;;;19.66;100.00
9462;BME280;4769;42.660;23.262;2023-06-14T00:05:34;93704.72;;;19.77;100.00
9462;BME280;4769;42.660;23.262;2023-06-14T00:08:03;93703.16;;;19.85;100.00
9462;BME280;4769;42.660;23.262;2023-06-14T00:10:29;93699.34;;;19.77;100.00
9462;BME280;4769;42.660;23.262;2023-06-14T00:12:55;93698.69;;;19.72;100.00
9462;BME280;4769;42.660;23.262;2023-06-14T00:15:20;93690.63;;;19.63;100.00
9462;BME280;4769;42.660;23.262;2023-06-14T00:17:46;93695.47;;;19.61;100.00
9462;BME280;4769;42.660;23.262;2023-06-14T00:20:12;93686.84;;;19.64;100.00
9462;BME280;4769;42.660;23.262;2023-06-14T00:22:37;93692.53;;;19.71;100.00
9462;BME280;4769;42.660;23.262;2023-06-14T00:25:07;93687.31;;;19.66;100.00
9462;BME280;4769;42.660;23.262;2023-06-14T00:27:32;93685.91;;;19.69;100.00
9462;BME280;4769;42.660;23.262;2023-06-14T00:29:58;93693.47;;;19.67;100.00
9462;BME280;4769;42.660;23.262;2023-06-14T00:32:24;93689.22;;;19.66;100.00
9462;BME280;4769;42.660;23.262;2023-06-14T00:34:49;93688.13;;;19.67;100.00
9462;BME280;4769;42.660;23.262;2023-06-14T00:37:15;93696.56;;;19.60;100.00
9462;BME280;4769;42.660;23.262;2023-06-14T00:39:41;93689.41;;;19.47;100.00
9462;BME280;4769;42.660;23.262;2023-06-14T00:42:09;93683.69;;;19.40;100.00
9462;BME280;4769;42.660;23.262;2023-06-14T00:44:35;93686.56;;;19.44;100.00
9462;BME280;4769;42.660;23.262;2023-06-14T00:47:01;93672.50;;;19.38;100.00
9462;BME280;4769;42.660;23.262;2023-06-14T00:49:26;93676.69;;;19.31;100.00
9462;BME280;4769;42.660;23.262;2023-06-14T00:51:52;93672.28;;;19.26;100.00
9462;BME280;4769;42.660;23.262;2023-06-14T00:54:18;93670.69;;;19.25;100.00
9462;BME280;4769;42.660;23.262;2023-06-14T00:56:44;93675.31;;;19.33;100.00
9462;BME280;4769;42.660;23.262;2023-06-14T00:59:12;93673.59;;;19.37;100.00
9462;BME280;4769;42.660;23.262;2023-06-14T01:01:38;93676.84;;;19.48;100.00
9462;BME280;4769;42.660;23.262;2023-06-14T01:04:04;93676.19;;;19.51;100.00
9462;BME280;4769;42.660;23.262;2023-06-14T01:06:35;93671.22;;;19.58;100.00
9462;BME280;4769;42.660;23.262;2023-06-14T01:09:09;93671.00;;;19.76;100.00
9462;BME280;4769;42.660;23.262;2023-06-14T01:11:47;93670.06;;;19.72;100.00
9462;BME280;4769;42.660;23.262;2023-06-14T01:14:19;93678.38;;;19.71;100.00
9462;BME280;4769;42.660;23.262;2023-06-14T01:16:46;93671.75;;;19.68;100.00
9462;BME280;4769;42.660;23.262;2023-06-14T01:19:14;93663.53;;;19.65;100.00
9462;BME280;4769;42.660;23.262;2023-06-14T01:21:41;93673.47;;;19.64;100.00
9462;BME280;4769;42.660;23.262;2023-06-14T01:24:10;93669.84;;;19.69;100.00
9462;BME280;4769;42.660;23.262;2023-06-14T01:26:36;93661.81;;;19.60;100.00
9462;BME280;4769;42.660;23.262;2023-06-14T01:29:02;93668.25;;;19.59;100.00
9462;BME280;4769;42.660;23.262;2023-06-14T01:31:28;93674.31;;;19.51;100.00
9462;BME280;4769;42.660;23.262;2023-06-14T01:33:55;93669.09;;;19.46;100.00
9462;BME280;4769;42.660;23.262;2023-06-14T01:36:22;93669.53;;;19.40;100.00
9462;BME280;4769;42.660;23.262;2023-06-14T01:38:52;93671.53;;;19.34;100.00
9462;BME280;4769;42.660;23.262;2023-06-14T01:41:22;93680.06;;;19.36;100.00
9462;BME280;4769;42.660;23.262;2023-06-14T01:43:49;93669.78;;;19.30;100.00
9462;BME280;4769;42.660;23.262;2023-06-14T01:46:16;93676.44;;;19.19;100.00
9462;BME280;4769;42.660;23.262;2023-06-14T01:48:42;93656.88;;;19.10;100.00
9462;BME280;4769;42.660;23.262;2023-06-14T01:51:08;93670.88;;;19.15;100.00
9462;BME280;4769;42.660;23.262;2023-06-14T01:53:34;93669.13;;;19.11;100.00
9462;BME280;4769;42.660;23.262;2023-06-14T01:56:00;93673.69;;;19.10;100.00
9462;BME280;4769;42.660;23.262;2023-06-14T01:58:29;93678.03;;;19.20;100.00
9462;BME280;4769;42.660;23.262;2023-06-14T02:00:54;93681.16;;;19.22;100.00
9462;BME280;4769;42.660;23.262;2023-06-14T02:03:20;93682.16;;;19.26;100.00
9462;BME280;4769;42.660;23.262;2023-06-14T02:05:47;93676.81;;;19.26;100.00
9462;BME280;4769;42.660;23.262;2023-06-14T02:08:12;93686.13;;;19.28;100.00
9462;BME280;4769;42.660;23.262;2023-06-14T02:10:38;93693.78;;;19.43;100.00
9462;BME280;4769;42.660;23.262;2023-06-14T02:13:04;93694.09;;;19.42;100.00
9462;BME280;4769;42.660;23.262;2023-06-14T02:15:32;93692.19;;;19.42;100.00
9462;BME280;4769;42.660;23.262;2023-06-14T02:17:58;93691.16;;;19.30;100.00
9462;BME280;4769;42.660;23.262;2023-06-14T02:20:23;93701.78;;;19.43;100.00
9462;BME280;4769;42.660;23.262;2023-06-14T02:22:49;93707.47;;;19.42;100.00
9462;BME280;4769;42.660;23.262;2023-06-14T02:25:15;93704.34;;;19.26;100.00
9462;BME280;4769;42.660;23.262;2023-06-14T02:27:41;93710.06;;;19.33;100.00
9462;BME280;4769;42.660;23.262;2023-06-14T02:30:08;93704.88;;;19.37;100.00
9462;BME280;4769;42.660;23.262;2023-06-14T02:32:36;93703.31;;;19.36;100.00
9462;BME280;4769;42.660;23.262;2023-06-14T02:35:02;93702.22;;;19.37;100.00
9462;BME280;4769;42.660;23.262;2023-06-14T02:37:28;93703.81;;;19.38;100.00
9462;BME280;4769;42.660;23.262;2023-06-14T02:39:55;93698.94;;;19.40;100.00
9462;BME280;4769;42.660;23.262;2023-06-14T02:42:21;93697.25;;;19.44;100.00
9462;BME280;4769;42.660;23.262;2023-06-14T02:44:46;93700.94;;;19.34;100.00
9462;BME280;4769;42.660;23.262;2023-06-14T02:47:12;93703.50;;;19.39;100.00
9462;BME280;4769;42.660;23.262;2023-06-14T02:49:41;93699.31;;;19.47;100.00
9462;BME280;4769;42.660;23.262;2023-06-14T02:52:06;93698.34;;;19.43;100.00
9462;BME280;4769;42.660;23.262;2023-06-14T02:54:32;93705.13;;;19.49;100.00
9462;BME280;4769;42.660;23.262;2023-06-14T02:56:58;93698.66;;;19.41;100.00
9462;BME280;4769;42.660;23.262;2023-06-14T02:59:23;93704.28;;;19.40;100.00
9462;BME280;4769;42.660;23.262;2023-06-14T03:01:49;93697.50;;;19.34;100.00
9462;BME280;4769;42.660;23.262;2023-06-14T03:04:15;93700.00;;;19.30;100.00
9462;BME280;4769;42.660;23.262;2023-06-14T03:06:43;93707.22;;;19.30;100.00
9462;BME280;4769;42.660;23.262;2023-06-14T03:09:09;93705.22;;;19.22;100.00
9462;BME280;4769;42.660;23.262;2023-06-14T03:11:35;93714.28;;;19.12;100.00
9462;BME280;4769;42.660;23.262;2023-06-14T03:14:01;93710.44;;;19.05;100.00
9462;BME280;4769;42.660;23.262;2023-06-14T03:16:27;93716.25;;;19.07;100.00
9462;BME280;4769;42.660;23.262;2023-06-14T03:18:52;93715.25;;;19.16;100.00
9462;BME280;4769;42.660;23.262;2023-06-14T03:21:19;93710.69;;;19.17;100.00
9462;BME280;4769;42.660;23.262;2023-06-14T03:23:48;93716.91;;;19.26;100.00
9462;BME280;4769;42.660;23.262;2023-06-14T03:26:13;93716.44;;;19.24;100.00
9462;BME280;4769;42.660;23.262;2023-06-14T03:28:39;93720.44;;;19.35;100.00
9462;BME280;4769;42.660;23.262;2023-06-14T03:31:05;93722.88;;;19.45;100.00
9462;BME280;4769;42.660;23.262;2023-06-14T03:33:31;93710.13;;;19.42;100.00
9462;BME280;4769;42.660;23.262;2023-06-14T03:35:57;93723.38;;;19.47;100.00
9462;BME280;4769;42.660;23.262;2023-06-14T03:38:23;93734.47;;;19.62;100.00
9462;BME280;4769;42.660;23.262;2023-06-14T03:40:52;93735.16;;;19.68;100.00
9462;BME280;4769;42.660;23.262;2023-06-14T03:43:18;93728.59;;;19.74;100.00
9462;BME280;4769;42.660;23.262;2023-06-14T03:45:44;93731.59;;;19.72;100.00
9462;BME280;4769;42.660;23.262;2023-06-14T03:48:10;93730.09;;;19.66;100.00
9462;BME280;4769;42.660;23.262;2023-06-14T03:50:35;93726.00;;;19.60;100.00
9462;BME280;4769;42.660;23.262;2023-06-14T03:53:01;93729.47;;;19.61;100.00
9462;BME280;4769;42.660;23.262;2023-06-14T03:55:27;93726.16;;;19.64;100.00
9462;BME280;4769;42.660;23.262;2023-06-14T03:57:56;93742.16;;;19.77;100.00
9462;BME280;4769;42.660;23.262;2023-06-14T04:00:21;93726.97;;;19.64;100.00
9462;BME280;4769;42.660;23.262;2023-06-14T04:02:47;93730.34;;;19.56;100.00
9462;BME280;4769;42.660;23.262;2023-06-14T04:05:13;93725.44;;;19.50;100.00
9462;BME280;4769;42.660;23.262;2023-06-14T04:07:39;93741.78;;;19.70;100.00
9462;BME280;4769;42.660;23.262;2023-06-14T04:10:06;93738.44;;;19.65;100.00
9462;BME280;4769;42.660;23.262;2023-06-14T04:12:32;93729.34;;;19.66;100.00
9462;BME280;4769;42.660;23.262;2023-06-14T04:15:01;93735.97;;;19.68;100.00
9462;BME280;4769;42.660;23.262;2023-06-14T04:17:26;93727.00;;;19.51;100.00
9462;BME280;4769;42.660;23.262;2023-06-14T04:19:52;93739.06;;;19.62;100.00
9462;BME280;4769;42.660;23.262;2023-06-14T04:22:18;93734.06;;;19.69;100.00
9462;BME280;4769;42.660;23.262;2023-06-14T04:24:44;93732.22;;;19.78;100.00
9462;BME280;4769;42.660;23.262;2023-06-14T04:27:10;93736.59;;;19.96;100.00
9462;BME280;4769;42.660;23.262;2023-06-14T04:29:35;93727.91;;;20.21;100.00
9462;BME280;4769;42.660;23.262;2023-06-14T04:32:04;93737.59;;;20.30;100.00
9462;BME280;4769;42.660;23.262;2023-06-14T04:34:31;93730.28;;;20.22;100.00
9462;BME280;4769;42.660;23.262;2023-06-14T04:36:56;93738.53;;;20.34;100.00
9462;BME280;4769;42.660;23.262;2023-06-14T04:39:22;93736.97;;;20.33;100.00
9462;BME280;4769;42.660;23.262;2023-06-14T04:41:48;93740.91;;;20.36;100.00
9462;BME280;4769;42.660;23.262;2023-06-14T04:44:14;93725.69;;;20.53;100.00
9462;BME280;4769;42.660;23.262;2023-06-14T04:46:40;93721.16;;;20.62;100.00
9462;BME280;4769;42.660;23.262;2023-06-14T04:49:08;93728.44;;;20.70;100.00
9462;BME280;4769;42.660;23.262;2023-06-14T04:51:34;93740.72;;;20.71;100.00
9462;BME280;4769;42.660;23.262;2023-06-14T04:54:00;93733.00;;;20.78;100.00
9462;BME280;4769;42.660;23.262;2023-06-14T04:56:26;93736.19;;;20.89;100.00
9462;BME280;4769;42.660;23.262;2023-06-14T04:58:51;93745.63;;;20.86;100.00
9462;BME280;4769;42.660;23.262;2023-06-14T05:01:17;93746.84;;;20.63;100.00
9462;BME280;4769;42.660;23.262;2023-06-14T05:03:43;93747.81;;;20.76;100.00
9462;BME280;4769;42.660;23.262;2023-06-14T05:06:12;93749.59;;;20.89;100.00
9462;BME280;4769;42.660;23.262;2023-06-14T05:08:38;93743.56;;;20.83;100.00
9462;BME280;4769;42.660;23.262;2023-06-14T05:11:04;93740.47;;;20.90;100.00
9462;BME280;4769;42.660;23.262;2023-06-14T05:13:29;93753.75;;;21.03;100.00
9462;BME280;4769;42.660;23.262;2023-06-14T05:15:55;93754.06;;;21.10;99.44
9462;BME280;4769;42.660;23.262;2023-06-14T05:18:21;93754.75;;;21.41;99.17
9462;BME280;4769;42.660;23.262;2023-06-14T05:20:46;93761.97;;;21.66;98.57
9462;BME280;4769;42.660;23.262;2023-06-14T05:23:15;93759.00;;;21.76;97.08
9462;BME280;4769;42.660;23.262;2023-06-14T05:25:42;93769.72;;;21.93;95.94
9462;BME280;4769;42.660;23.262;2023-06-14T05:28:07;93770.84;;;21.75;95.00
9462;BME280;4769;42.660;23.262;2023-06-14T05:30:33;93777.28;;;21.57;94.79
9462;BME280;4769;42.660;23.262;2023-06-14T05:32:59;93776.22;;;21.58;96.75
9462;BME280;4769;42.660;23.262;2023-06-14T05:35:25;93775.88;;;21.68;96.15
9462;BME280;4769;42.660;23.262;2023-06-14T05:37:50;93778.13;;;21.83;95.88
9462;BME280;4769;42.660;23.262;2023-06-14T05:40:19;93772.06;;;22.03;94.97
9462;BME280;4769;42.660;23.262;2023-06-14T05:42:45;93775.72;;;21.99;93.94
9462;BME280;4769;42.660;23.262;2023-06-14T05:45:11;93775.72;;;21.90;91.91
9462;BME280;4769;42.660;23.262;2023-06-14T05:47:37;93779.84;;;21.88;93.14
9462;BME280;4769;42.660;23.262;2023-06-14T05:50:04;93778.28;;;21.78;93.57
9462;BME280;4769;42.660;23.262;2023-06-14T05:52:30;93781.09;;;21.82;95.15
9462;BME280;4769;42.660;23.262;2023-06-14T05:54:55;93784.88;;;21.89;95.06
9462;BME280;4769;42.660;23.262;2023-06-14T05:57:24;93779.38;;;21.86;95.22
9462;BME280;4769;42.660;23.262;2023-06-14T05:59:49;93783.97;;;21.77;95.01
9462;BME280;4769;42.660;23.262;2023-06-14T06:02:15;93794.38;;;21.70;95.90
9462;BME280;4769;42.660;23.262;2023-06-14T06:04:41;93793.69;;;21.56;95.56
9462;BME280;4769;42.660;23.262;2023-06-14T06:07:07;93792.91;;;21.64;95.09
9462;BME280;4769;42.660;23.262;2023-06-14T06:09:32;93787.88;;;21.62;93.64
9462;BME280;4769;42.660;23.262;2023-06-14T06:11:58;93797.03;;;21.61;95.03
9462;BME280;4769;42.660;23.262;2023-06-14T06:14:27;93788.97;;;21.36;95.91
9462;BME280;4769;42.660;23.262;2023-06-14T06:16:53;93794.63;;;21.17;97.69
9462;BME280;4769;42.660;23.262;2023-06-14T06:19:19;93801.56;;;21.18;98.33
9462;BME280;4769;42.660;23.262;2023-06-14T06:21:45;93803.13;;;21.19;98.54
9462;BME280;4769;42.660;23.262;2023-06-14T06:24:10;93804.84;;;21.15;98.82
9462;BME280;4769;42.660;23.262;2023-06-14T06:26:36;93807.84;;;21.14;99.92
9462;BME280;4769;42.660;23.262;2023-06-14T06:29:02;93805.97;;;21.23;97.86
9462;BME280;4769;42.660;23.262;2023-06-14T06:31:30;93806.97;;;21.35;97.00
9462;BME280;4769;42.660;23.262;2023-06-14T06:33:56;93816.88;;;21.43;96.80
9462;BME280;4769;42.660;23.262;2023-06-14T06:36:22;93812.19;;;21.40;97.33
9462;BME280;4769;42.660;23.262;2023-06-14T06:38:47;93807.13;;;21.47;97.53
9462;BME280;4769;42.660;23.262;2023-06-14T06:41:13;93798.44;;;21.50;97.46
9462;BME280;4769;42.660;23.262;2023-06-14T06:43:39;93808.09;;;21.68;97.08
9462;BME280;4769;42.660;23.262;2023-06-14T06:46:05;93800.22;;;21.80;96.46
9462;BME280;4769;42.660;23.262;2023-06-14T06:48:33;93805.69;;;22.09;94.43
9462;BME280;4769;42.660;23.262;2023-06-14T06:50:59;93806.13;;;22.37;93.36
9462;BME280;4769;42.660;23.262;2023-06-14T06:53:25;93805.97;;;22.42;91.68
9462;BME280;4769;42.660;23.262;2023-06-14T06:55:51;93815.84;;;22.75;90.33
9462;BME280;4769;42.660;23.262;2023-06-14T06:58:16;93808.00;;;22.91;89.62
9462;BME280;4769;42.660;23.262;2023-06-14T07:00:42;93810.19;;;22.97;89.64
9462;BME280;4769;42.660;23.262;2023-06-14T07:03:08;93810.56;;;22.87;89.38
9462;BME280;4769;42.660;23.262;2023-06-14T07:05:36;93809.31;;;23.22;87.67
9462;BME280;4769;42.660;23.262;2023-06-14T07:08:02;93814.94;;;23.58;86.84
9462;BME280;4769;42.660;23.262;2023-06-14T07:10:28;93818.56;;;24.04;84.87
9462;BME280;4769;42.660;23.262;2023-06-14T07:12:54;93816.25;;;24.14;83.58
9462;BME280;4769;42.660;23.262;2023-06-14T07:15:19;93809.03;;;23.85;82.92
9462;BME280;4769;42.660;23.262;2023-06-14T07:17:45;93811.28;;;23.83;82.41
9462;BME280;4769;42.660;23.262;2023-06-14T07:20:12;93794.38;;;23.54;83.35
9462;BME280;4769;42.660;23.262;2023-06-14T07:22:41;93806.31;;;23.44;84.11
9462;BME280;4769;42.660;23.262;2023-06-14T07:25:08;93811.84;;;23.48;85.07
9462;BME280;4769;42.660;23.262;2023-06-14T07:27:33;93807.84;;;23.54;85.76
9462;BME280;4769;42.660;23.262;2023-06-14T07:29:59;93809.69;;;23.83;84.13
9462;BME280;4769;42.660;23.262;2023-06-14T07:32:25;93806.63;;;24.25;82.67
9462;BME280;4769;42.660;23.262;2023-06-14T07:34:51;93804.00;;;24.49;80.70
9462;BME280;4769;42.660;23.262;2023-06-14T07:37:16;93804.94;;;24.21;80.88
9462;BME280;4769;42.660;23.262;2023-06-14T07:39:45;93804.25;;;23.70;82.95
9462;BME280;4769;42.660;23.262;2023-06-14T07:42:10;93809.47;;;23.46;83.20
9462;BME280;4769;42.660;23.262;2023-06-14T07:44:36;93798.00;;;23.78;82.87
9462;BME280;4769;42.660;23.262;2023-06-14T07:47:02;93809.72;;;24.03;81.82
9462;BME280;4769;42.660;23.262;2023-06-14T07:49:28;93802.88;;;24.38;80.56
9462;BME280;4769;42.660;23.262;2023-06-14T07:51:54;93807.28;;;24.43;79.25
9462;BME280;4769;42.660;23.262;2023-06-14T07:54:20;93817.34;;;24.34;78.93
9462;BME280;4769;42.660;23.262;2023-06-14T07:56:48;93818.16;;;25.03;76.55
9462;BME280;4769;42.660;23.262;2023-06-14T07:59:14;93808.06;;;25.60;74.10
9462;BME280;4769;42.660;23.262;2023-06-14T08:01:40;93817.78;;;26.28;71.87
9462;BME280;4769;42.660;23.262;2023-06-14T08:04:05;93809.84;;;26.62;70.51
9462;BME280;4769;42.660;23.262;2023-06-14T08:06:31;93809.09;;;26.93;67.98
9462;BME280;4769;42.660;23.262;2023-06-14T08:08:57;93813.03;;;26.64;67.54
9462;BME280;4769;42.660;23.262;2023-06-14T08:11:22;93823.09;;;26.24;68.92
9462;BME280;4769;42.660;23.262;2023-06-14T08:13:51;93830.84;;;25.86;68.89
9462;BME280;4769;42.660;23.262;2023-06-14T08:16:16;93837.91;;;25.39;70.01
9462;BME280;4769;42.660;23.262;2023-06-14T08:18:42;93823.03;;;25.21;72.10
9462;BME280;4769;42.660;23.262;2023-06-14T08:21:08;93832.34;;;25.24;71.86
9462;BME280;4769;42.660;23.262;2023-06-14T08:23:33;93839.31;;;25.13;73.18
9462;BME280;4769;42.660;23.262;2023-06-14T08:25:59;93836.03;;;25.19;72.74
9462;BME280;4769;42.660;23.262;2023-06-14T08:28:25;93837.19;;;25.18;73.03
9462;BME280;4769;42.660;23.262;2023-06-14T08:30:53;93829.31;;;25.37;71.84
9462;BME280;4769;42.660;23.262;2023-06-14T08:33:19;93837.59;;;25.92;70.54
9462;BME280;4769;42.660;23.262;2023-06-14T08:35:45;93833.13;;;26.51;69.49
9462;BME280;4769;42.660;23.262;2023-06-14T08:38:11;93828.66;;;26.71;67.44
9462;BME280;4769;42.660;23.262;2023-06-14T08:40:37;93837.72;;;26.51;68.00
9462;BME280;4769;42.660;23.262;2023-06-14T08:43:03;93821.66;;;26.85;67.21
9462;BME280;4769;42.660;23.262;2023-06-14T08:45:29;93832.41;;;26.82;66.34
9462;BME280;4769;42.660;23.262;2023-06-14T08:47:58;93820.09;;;26.69;67.28
9462;BME280;4769;42.660;23.262;2023-06-14T08:50:25;93815.50;;;26.85;65.64
9462;BME280;4769;42.660;23.262;2023-06-14T08:52:54;93818.44;;;26.80;65.01
9462;BME280;4769;42.660;23.262;2023-06-14T08:55:21;93817.84;;;27.02;64.25
9462;BME280;4769;42.660;23.262;2023-06-14T08:57:47;93814.00;;;27.49;62.00
9462;BME280;4769;42.660;23.262;2023-06-14T09:00:13;93813.75;;;27.73;60.72
9462;BME280;4769;42.660;23.262;2023-06-14T09:02:39;93813.59;;;28.77;59.53
9462;BME280;4769;42.660;23.262;2023-06-14T09:05:08;93810.16;;;29.47;58.18
9462;BME280;4769;42.660;23.262;2023-06-14T09:07:34;93816.94;;;29.12;58.57
9462;BME280;4769;42.660;23.262;2023-06-14T09:10:11;93814.47;;;29.48;56.96
9462;BME280;4769;42.660;23.262;2023-06-14T09:12:37;93809.50;;;28.86;56.10
9462;BME280;4769;42.660;23.262;2023-06-14T09:15:03;93801.88;;;29.37;54.54
9462;BME280;4769;42.660;23.262;2023-06-14T09:17:29;93794.69;;;29.74;54.40
9462;BME280;4769;42.660;23.262;2023-06-14T09:19:55;93790.41;;;30.02;53.00
9462;BME280;4769;42.660;23.262;2023-06-14T09:22:23;93789.69;;;30.35;51.36
9462;BME280;4769;42.660;23.262;2023-06-14T09:24:49;93795.44;;;29.74;53.36
9462;BME280;4769;42.660;23.262;2023-06-14T09:27:16;93796.44;;;29.14;54.73
9462;BME280;4769;42.660;23.262;2023-06-14T09:29:41;93792.13;;;29.36;54.70
9462;BME280;4769;42.660;23.262;2023-06-14T09:32:07;93779.66;;;29.83;54.73
9462;BME280;4769;42.660;23.262;2023-06-14T09:34:34;93800.31;;;29.88;55.35
9462;BME280;4769;42.660;23.262;2023-06-14T09:37:00;93785.94;;;30.13;54.59
9462;BME280;4769;42.660;23.262;2023-06-14T09:39:28;93798.88;;;29.97;55.05
9462;BME280;4769;42.660;23.262;2023-06-14T09:41:54;93789.56;;;29.98;53.26
9462;BME280;4769;42.660;23.262;2023-06-14T09:44:20;93781.16;;;30.07;53.44
9462;BME280;4769;42.660;23.262;2023-06-14T09:46:47;93778.78;;;29.76;54.99
9462;BME280;4769;42.660;23.262;2023-06-14T09:49:13;93788.84;;;29.49;56.22
9462;BME280;4769;42.660;23.262;2023-06-14T09:51:43;93770.81;;;29.38;57.00
9462;BME280;4769;42.660;23.262;2023-06-14T09:54:15;93772.81;;;29.67;56.04
9462;BME280;4769;42.660;23.262;2023-06-14T09:56:44;93779.56;;;30.06;54.74
9462;BME280;4769;42.660;23.262;2023-06-14T09:59:12;93770.06;;;30.88;52.23
9462;BME280;4769;42.660;23.262;2023-06-14T10:01:41;93767.34;;;31.89;49.17
9462;BME280;4769;42.660;23.262;2023-06-14T10:04:09;93763.84;;;31.89;48.01
9462;BME280;4769;42.660;23.262;2023-06-14T10:06:36;93757.38;;;32.22;48.49
9462;BME280;4769;42.660;23.262;2023-06-14T10:09:04;93768.09;;;32.72;47.79
9462;BME280;4769;42.660;23.262;2023-06-14T10:11:29;93751.38;;;33.02;46.88
9462;BME280;4769;42.660;23.262;2023-06-14T10:13:58;93751.00;;;33.66;43.91
9462;BME280;4769;42.660;23.262;2023-06-14T10:16:28;93741.16;;;34.04;42.67
9462;BME280;4769;42.660;23.262;2023-06-14T10:19:02;93736.91;;;33.85;41.94
9462;BME280;4769;42.660;23.262;2023-06-14T10:21:36;93739.97;;;32.54;43.90
9462;BME280;4769;42.660;23.262;2023-06-14T10:24:07;93735.53;;;31.50;47.23
9462;BME280;4769;42.660;23.262;2023-06-14T10:26:34;93738.13;;;30.49;49.75
9462;BME280;4769;42.660;23.262;2023-06-14T10:29:08;93737.88;;;30.24;51.13
9462;BME280;4769;42.660;23.262;2023-06-14T10:31:41;93739.09;;;30.01;52.57
9462;BME280;4769;42.660;23.262;2023-06-14T10:34:07;93742.72;;;29.79;52.91
9462;BME280;4769;42.660;23.262;2023-06-14T10:36:32;93738.97;;;29.61;53.01
9462;BME280;4769;42.660;23.262;2023-06-14T10:39:00;93723.50;;;29.13;53.64
9462;BME280;4769;42.660;23.262;2023-06-14T10:41:27;93727.22;;;28.82;55.15
9462;BME280;4769;42.660;23.262;2023-06-14T10:44:13;93729.44;;;28.73;55.60
9462;BME280;4769;42.660;23.262;2023-06-14T10:46:58;93734.63;;;28.40;56.93
9462;BME280;4769;42.660;23.262;2023-06-14T10:49:37;93728.56;;;28.47;56.99
9462;BME280;4769;42.660;23.262;2023-06-14T10:52:03;93735.31;;;28.56;58.41
9462;BME280;4769;42.660;23.262;2023-06-14T10:54:29;93725.63;;;28.78;58.03
9462;BME280;4769;42.660;23.262;2023-06-14T10:56:55;93718.09;;;29.42;55.91
9462;BME280;4769;42.660;23.262;2023-06-14T10:59:23;93711.75;;;29.87;55.45
9462;BME280;4769;42.660;23.262;2023-06-14T11:01:56;93703.84;;;29.49;55.04
9462;BME280;4769;42.660;23.262;2023-06-14T11:04:32;93698.06;;;28.98;55.57
9462;BME280;4769;42.660;23.262;2023-06-14T11:07:08;93701.53;;;29.77;54.15
9462;BME280;4769;42.660;23.262;2023-06-14T11:09:55;93701.47;;;29.73;54.11
9462;BME280;4769;42.660;23.262;2023-06-14T11:12:27;93690.88;;;31.14;51.83
9462;BME280;4769;42.660;23.262;2023-06-14T11:14:56;93690.22;;;31.24;50.85
9462;BME280;4769;42.660;23.262;2023-06-14T11:17:22;93693.16;;;31.63;49.21
9462;BME280;4769;42.660;23.262;2023-06-14T11:19:47;93694.09;;;31.23;49.62
9462;BME280;4769;42.660;23.262;2023-06-14T11:22:13;93686.91;;;31.59;48.88
9462;BME280;4769;42.660;23.262;2023-06-14T11:24:39;93686.53;;;31.60;47.90
9462;BME280;4769;42.660;23.262;2023-06-14T11:27:05;93689.16;;;31.43;48.53
9462;BME280;4769;42.660;23.262;2023-06-14T11:29:31;93691.69;;;31.18;49.99
9462;BME280;4769;42.660;23.262;2023-06-14T11:32:00;93687.09;;;30.06;50.97
9462;BME280;4769;42.660;23.262;2023-06-14T11:34:25;93694.03;;;29.41;52.95
9462;BME280;4769;42.660;23.262;2023-06-14T11:36:51;93692.84;;;29.12;54.51
9462;BME280;4769;42.660;23.262;2023-06-14T11:39:17;93691.94;;;29.57;54.23
9462;BME280;4769;42.660;23.262;2023-06-14T11:41:44;93679.19;;;29.61;53.26
9462;BME280;4769;42.660;23.262;2023-06-14T11:44:10;93675.88;;;29.74;52.54
9462;BME280;4769;42.660;23.262;2023-06-14T11:46:36;93674.44;;;28.99;55.19
9462;BME280;4769;42.660;23.262;2023-06-14T11:49:06;93677.41;;;29.16;55.17
9462;BME280;4769;42.660;23.262;2023-06-14T11:51:33;93668.75;;;29.37;54.64
9462;BME280;4769;42.660;23.262;2023-06-14T11:53:59;93661.56;;;29.51;55.01
9462;BME280;4769;42.660;23.262;2023-06-14T11:56:25;93664.13;;;30.73;52.71
9462;BME280;4769;42.660;23.262;2023-06-14T11:58:52;93663.09;;;32.31;48.48
9462;BME280;4769;42.660;23.262;2023-06-14T12:01:18;93667.09;;;33.14;44.57
9462;BME280;4769;42.660;23.262;2023-06-14T12:03:48;93656.56;;;32.81;45.13
9462;BME280;4769;42.660;23.262;2023-06-14T12:06:17;93647.88;;;33.60;42.70
9462;BME280;4769;42.660;23.262;2023-06-14T12:08:50;93646.66;;;33.85;41.19
9462;BME280;4769;42.660;23.262;2023-06-14T12:11:16;93640.22;;;31.64;44.77
9462;BME280;4769;42.660;23.262;2023-06-14T12:13:42;93643.88;;;31.21;46.45
9462;BME280;4769;42.660;23.262;2023-06-14T12:16:09;93640.84;;;32.19;46.33
9462;BME280;4769;42.660;23.262;2023-06-14T12:18:35;93639.34;;;33.12;44.28
9462;BME280;4769;42.660;23.262;2023-06-14T12:21:02;93634.97;;;34.53;40.25
9462;BME280;4769;42.660;23.262;2023-06-14T12:23:42;93636.28;;;34.24;40.89
9462;BME280;4769;42.660;23.262;2023-06-14T12:26:08;93638.13;;;33.59;40.98
9462;BME280;4769;42.660;23.262;2023-06-14T12:28:34;93634.97;;;33.67;42.31
9462;BME280;4769;42.660;23.262;2023-06-14T12:31:00;93629.16;;;34.41;40.84
9462;BME280;4769;42.660;23.262;2023-06-14T12:33:26;93626.44;;;33.48;40.39
9462;BME280;4769;42.660;23.262;2023-06-14T12:35:55;93628.59;;;34.02;39.60
9462;BME280;4769;42.660;23.262;2023-06-14T12:38:20;93618.22;;;34.41;39.65
9462;BME280;4769;42.660;23.262;2023-06-14T12:40:50;93622.09;;;33.68;39.65
9462;BME280;4769;42.660;23.262;2023-06-14T12:43:16;93609.72;;;33.07;41.03
9462;BME280;4769;42.660;23.262;2023-06-14T12:45:41;93607.69;;;34.36;40.24
9462;BME280;4769;42.660;23.262;2023-06-14T12:48:07;93605.91;;;34.66;38.62
9462;BME280;4769;42.660;23.262;2023-06-14T12:50:33;93612.78;;;33.51;40.08
9462;BME280;4769;42.660;23.262;2023-06-14T12:52:59;93596.84;;;32.66;41.49
9462;BME280;4769;42.660;23.262;2023-06-14T12:55:24;93593.50;;;33.86;41.06
9462;BME280;4769;42.660;23.262;2023-06-14T12:57:53;93595.56;;;34.37;39.62
9462;BME280;4769;42.660;23.262;2023-06-14T13:00:19;93603.53;;;34.14;39.63
9462;BME280;4769;42.660;23.262;2023-06-14T13:02:45;93604.59;;;33.37;41.20
9462;BME280;4769;42.660;23.262;2023-06-14T13:05:11;93596.72;;;31.85;44.78